Terminal Aerodrome Forecast
Issued by NWS Quad Cities IA IL

Home | Current Version | Previous Version | Text Only | Print | Product List | Glossary On
Versions: 1 2 3 4 5 6 7 8 9 10 11 12 13 14 15 16 17 18 19 20 21 22 23 24 25
000
FTUS43 KDVN 181141
TAFMLI
TAF
KMLI 181141Z 1812/1912 09015KT P6SM OVC050
     FM181500 06016G23KT 5SM RAPL BR VCTS OVC015CB
     FM181700 02013G20KT 1SM -SN OVC008
     FM182100 33015G22KT 3SM -SN BR OVC012
     FM190000 33012G19KT P6SM VCSH BKN020
     FM190400 31010KT P6SM BKN030=

USA.gov is the U.S. government's official web portal to all federal, state and local government web resources and services.